Foveran, United Kingdom
Current Conditions -  °F | °C
As of 7:20 PM on Sunday 21 Dec 2014 (Local Time) from EGPD Reporting Station
Few Clouds Few Clouds  
Wind Chill: 50°   Ceiling: Unl
Heat Index: 50°   Visibility: 6mi
Dew Point: 43°   Wind: 2mph
Humidity: 76%   Direction: NA
Pressure: 29.53"   Gusts: NA
Location:  57.31°N, 2.04°W
Report Text: EGPD 211920Z VRB02KT 9999 FEW040 10/06 Q1000 NOSIG
Loading
Personal Weather Stations






























Interactive Weather Map New forecast layout! Learn more

10-Day Weather Forecast

Advertisements
Track Severe Weather on mobile